Latest Weather Observations for Yarrawonga

IDV60801

Issued at 8:03 am EDT Wednesday 22 February 2017 (issued every 30 minutes, with the page automatically refreshed every 10 minutes)

About weather observations | Map of weather stations | Latest weather observations for VIC | Other Formats
Station Details ID: 081124 Name: YARRAWONGA Lat: -36.03 Lon: 146.03 Height: 128.9 m
Data from the previous 72 hours. | See also: Recent months at Yarrawonga
Date/Time
EDT
Temp
°C
App
Temp
°C
Dew
Point
°C
Rel
Hum
%
Delta-T
°C
Wind Press
QNH
hPa
Press
MSL
hPa
Rain since
9am
mm
Dir  Spd
km/h
Gust
km/h
Spd
kts
Gust
kts
22/08:00am 15.8 13.6 9.5 66 3.3 E 11 17 6 9 1017.8 1017.2 0.0
22/07:30am 13.1 11.2 9.0 76 2.1 E 9 11 5 6 1017.5 1016.9 0.0
22/07:00am 11.6 9.6 8.5 81 1.5 E 9 11 5 6 1017.2 1016.6 0.0
22/06:30am 11.4 9.6 8.1 80 1.6 E 7 9 4 5 1017.1 1016.5 0.0
22/06:00am 11.0 9.3 7.7 80 1.6 ESE 6 6 3 3 1017.0 1016.4 0.0
22/05:30am 11.4 9.8 8.1 80 1.6 E 6 7 3 4 1017.0 1016.4 0.0
22/05:00am 11.4 9.7 7.7 78 1.8 E 6 9 3 5 1017.0 1016.4 0.0
22/04:30am 11.8 10.1 7.5 75 2.1 E 6 9 3 5 1016.8 1016.2 0.0
22/04:00am 12.1 10.2 7.4 73 2.3 E 7 9 4 5 1016.8 1016.2 0.0
22/03:30am 11.9 9.9 7.0 72 2.4 ESE 7 9 4 5 1017.0 1016.4 0.0
22/03:00am 11.6 9.5 5.7 67 2.8 E 6 7 3 4 1017.1 1016.5 0.0
22/02:30am 11.1 9.6 5.0 66 2.8 ESE 2 4 1 2 1017.2 1016.6 0.0
22/02:00am 11.3 9.5 5.6 68 2.6 SE 4 4 2 2 1017.2 1016.6 0.0
22/01:30am 11.6 10.5 5.3 65 2.9 CALM 0 0 0 0 1017.5 1016.9 0.0
22/01:00am 12.2 10.5 6.0 66 2.9 SE 4 4 2 2 1017.8 1017.2 0.0
22/12:30am 12.4 10.9 5.1 61 3.4 S 2 4 1 2 1018.0 1017.4 0.0
22/12:00am 13.5 11.8 5.9 60 3.6 S 4 4 2 2 1018.2 1017.6 0.0
 
Date/Time
EDT
Temp
°C
App
Temp
°C
Dew
Point
°C
Rel
Hum
%
Delta-T
°C
Wind Press
QNH
hPa
Press
MSL
hPa
Rain since
9am
mm
Dir  Spd
km/h
Gust
km/h
Spd
kts
Gust
kts
21/11:30pm 14.2 13.2 5.6 56 4.1 CALM 0 0 0 0 1018.2 1017.6 0.0
21/11:00pm 15.1 14.2 5.9 54 4.4 CALM 0 0 0 0 1018.3 1017.7 0.0
21/10:30pm 14.6 12.7 4.9 52 4.6 SE 4 4 2 2 1018.4 1017.8 0.0
21/10:00pm 16.1 13.9 5.1 48 5.2 S 6 7 3 4 1018.5 1017.9 0.0
21/09:30pm 17.6 16.1 5.2 44 6.0 SW 2 4 1 2 1018.3 1017.7 0.0
21/09:00pm 19.0 17.9 5.1 40 6.8 CALM 0 0 0 0 1018.2 1017.6 0.0
21/08:30pm 21.3 20.3 5.6 36 7.9 CALM 0 0 0 0 1018.1 1017.5 0.0
21/08:00pm 23.4 21.9 4.9 30 9.3 NE 2 2 1 1 1017.8 1017.2 0.0
21/07:30pm 24.8 22.3 3.5 25 10.5 NE 6 9 3 5 1017.4 1016.8 0.0
21/07:00pm 25.6 22.9 3.6 24 10.9 NNE 7 9 4 5 1017.1 1016.5 0.0
21/06:30pm 25.6 22.9 3.6 24 10.9 NNE 7 13 4 7 1017.2 1016.6 0.0
21/06:00pm 26.2 23.2 4.1 24 11.1 NNE 9 17 5 9 1017.2 1016.6 0.0
21/05:30pm 26.1 23.1 4.0 24 11.1 NNE 9 17 5 9 1017.5 1016.9 0.0
21/05:00pm 25.8 22.8 4.3 25 10.8 NNE 9 15 5 8 1017.6 1017.0 0.0
21/04:30pm 25.8 21.7 4.3 25 10.8 E 15 24 8 13 1017.8 1017.2 0.0
21/04:00pm 26.4 22.8 4.8 25 11.0 NE 13 20 7 11 1018.0 1017.4 0.0
21/03:30pm 25.7 22.8 4.8 26 10.6 NW 9 17 5 9 1018.4 1017.8 0.0
21/03:00pm 26.1 22.7 5.7 27 10.5 NNW 13 24 7 13 1018.9 1018.3 0.0
21/02:30pm 25.1 22.8 5.8 29 9.9 NW 7 13 4 7 1019.5 1018.9 0.0
21/02:00pm 24.9 21.1 5.7 29 9.8 ENE 15 24 8 13 1019.8 1019.2 0.0
21/01:30pm 23.8 21.2 6.1 32 9.1 N 9 19 5 10 1020.1 1019.5 0.0
21/01:00pm 23.2 20.7 6.5 34 8.6 NNE 9 19 5 10 1020.5 1019.9 0.0
21/12:30pm 22.5 20.3 6.3 35 8.3 NE 7 13 4 7 1020.7 1020.2 0.0
21/12:00pm 22.0 19.5 6.7 37 7.8 NNW 9 17 5 9 1021.0 1020.5 0.0
21/11:30am 21.4 19.6 7.3 40 7.3 NE 6 11 3 6 1021.4 1020.9 0.0
21/11:00am 21.5 20.0 8.4 43 6.9 SE 6 9 3 5 1021.6 1021.1 0.0
21/10:30am 19.7 18.3 8.7 49 5.8 NNE 6 11 3 6 1021.5 1021.0 0.0
21/10:00am 18.9 17.5 8.8 52 5.3 ENE 6 11 3 6 1021.4 1020.9 0.0
21/09:30am 17.4 15.9 9.1 58 4.3 E 7 11 4 6 1021.5 1021.0 0.0
21/09:00am 15.9 14.4 9.3 65 3.4 ESE 7 11 4 6 1021.1 1020.6 0.0
21/08:30am 13.9 12.7 9.7 76 2.2 ESE 6 9 3 5 1020.9 1020.4 0.0
21/08:00am 11.8 11.3 9.2 84 1.3 ESE 2 6 1 3 1020.4 1019.8 0.0
21/07:30am 7.9 6.4 6.7 92 0.6 ESE 4 6 2 3 1020.0 1019.4 0.0
21/07:00am 6.3 4.8 5.1 92 0.5 SSE 2 6 1 3 1019.7 1019.1 0.0
21/06:30am 6.3 5.1 4.8 90 0.7 CALM 0 0 0 0 1019.3 1018.7 0.0
21/06:00am 7.5 6.5 5.8 89 0.8 CALM 0 0 0 0 1019.0 1018.4 0.0
21/05:30am 6.9 5.9 5.5 91 0.6 CALM 0 0 0 0 1018.8 1018.2 0.0
21/05:00am 7.1 6.0 5.3 88 0.8 CALM 0 0 0 0 1018.6 1018.0 0.0
21/04:30am 8.0 5.9 6.0 87 0.9 WSW 6 6 3 3 1018.3 1017.7 0.0
21/04:00am 8.4 6.8 6.2 86 1.0 SW 4 6 2 3 1018.3 1017.7 0.0
21/03:30am 8.5 6.5 6.1 85 1.1 SW 6 6 3 3 1018.2 1017.6 0.0
21/03:00am 8.9 6.7 6.3 84 1.2 SW 7 7 4 4 1018.2 1017.6 0.0
21/02:30am 8.9 6.8 5.8 81 1.4 SW 6 7 3 4 1018.2 1017.6 0.0
21/02:00am 9.5 7.8 6.0 79 1.6 SSW 4 6 2 3 1018.2 1017.6 0.0
21/01:30am 10.7 9.1 6.5 75 2.0 SW 4 6 2 3 1018.3 1017.7 0.0
21/01:00am 11.4 9.7 6.1 70 2.5 S 4 4 2 2 1018.3 1017.7 0.0
21/12:30am 11.5 9.8 6.0 69 2.6 SW 4 6 2 3 1018.1 1017.5 0.0
21/12:00am 12.4 10.4 6.2 66 2.9 SW 6 7 3 4 1018.1 1017.5 0.0
 
Date/Time
EDT
Temp
°C
App
Temp
°C
Dew
Point
°C
Rel
Hum
%
Delta-T
°C
Wind Press
QNH
hPa
Press
MSL
hPa
Rain since
9am
mm
Dir  Spd
km/h
Gust
km/h
Spd
kts
Gust
kts
20/11:30pm 12.9 10.0 6.5 65 3.1 WSW 11 22 6 12 1018.0 1017.4 0.0
20/11:00pm 15.0 12.9 6.6 57 4.1 WNW 7 9 4 5 1017.5 1016.9 0.0
20/10:30pm 14.5 12.5 6.3 58 4.0 WNW 6 7 3 4 1017.3 1016.7 0.0
20/10:00pm 15.6 13.5 5.8 52 4.7 WNW 6 7 3 4 1017.1 1016.5 0.0
20/09:30pm 15.6 13.8 5.5 51 4.8 W 4 6 2 3 1016.7 1016.1 0.0
20/09:00pm 16.3 13.5 5.0 47 5.4 W 9 11 5 6 1016.3 1015.7 0.0
20/08:30pm 17.4 14.1 4.7 43 6.1 WSW 11 13 6 7 1015.8 1015.2 0.0
20/08:00pm 19.4 15.3 4.4 37 7.2 W 15 19 8 10 1015.4 1014.8 0.0
20/07:30pm 20.9 16.0 4.0 33 8.2 W 19 24 10 13 1014.7 1014.2 0.0
20/07:00pm 22.1 17.6 4.2 31 8.8 WSW 17 28 9 15 1014.3 1013.8 0.0
20/06:30pm 22.2 17.7 4.3 31 8.8 SSW 17 20 9 11 1014.2 1013.7 0.0
20/06:00pm 20.5 15.7 4.5 35 7.8 W 19 28 10 15 1014.1 1013.6 0.0
20/05:30pm 22.6 17.7 5.1 32 8.8 WNW 20 32 11 17 1013.9 1013.4 0.0
20/05:00pm 21.1 17.2 5.5 36 7.8 WSW 15 30 8 16 1013.8 1013.2 0.0
20/04:30pm 20.6 16.0 5.4 37 7.5 WSW 19 30 10 16 1013.7 1013.1 0.0
20/04:00pm 20.3 16.5 5.9 39 7.2 WSW 15 26 8 14 1013.7 1013.1 0.0
20/03:30pm 20.9 16.4 6.8 40 7.2 SW 20 32 11 17 1013.8 1013.2 0.0
20/03:00pm 20.2 15.7 6.2 40 7.0 W 19 28 10 15 1014.0 1013.5 0.0
20/02:30pm 20.9 17.1 7.5 42 6.9 SW 17 33 9 18 1014.1 1013.6 0.0
20/02:00pm 19.4 15.1 6.8 44 6.4 WSW 19 30 10 16 1014.3 1013.8 0.0
20/01:30pm 20.9 17.1 9.2 47 6.3 WSW 19 32 10 17 1014.4 1013.9 0.0
20/01:00pm 18.7 14.8 8.7 52 5.2 SW 19 28 10 15 1014.6 1014.1 0.0
20/12:30pm 17.4 13.4 8.3 55 4.7 SW 19 28 10 15 1014.8 1014.3 0.0
20/12:00pm 17.5 13.9 8.4 55 4.7 WSW 17 26 9 14 1015.0 1014.4 0.0
20/11:30am 16.9 13.7 9.8 63 3.7 SW 17 26 9 14 1015.1 1014.5 0.0
20/11:00am 16.1 12.5 9.8 66 3.3 WSW 19 28 10 15 1015.3 1014.7 0.0
20/10:30am 15.5 11.9 9.8 69 3.0 WSW 19 28 10 15 1015.3 1014.7 0.0
20/10:00am 14.1 10.5 9.9 76 2.2 WSW 19 24 10 13 1015.2 1014.6 0.0
20/09:30am 13.2 9.6 10.4 83 1.5 WSW 20 26 11 14 1015.1 1014.5 0.0
20/09:00am 11.7 8.0 9.6 87 1.1 W 19 24 10 13 1014.8 1014.3 1.6
20/08:30am 10.6 7.9 9.0 90 0.8 W 13 19 7 10 1014.5 1014.0 1.6
20/08:00am 9.3 6.8 8.2 93 0.5 W 11 15 6 8 1014.3 1013.8 1.6
20/07:30am 8.2 5.6 7.6 96 0.3 W 11 13 6 7 1013.8 1013.2 1.6
20/07:00am 7.8 5.1 7.2 96 0.3 W 11 15 6 8 1013.4 1012.8 1.6
20/06:30am 7.8 5.1 7.4 97 0.2 W 11 15 6 8 1013.0 1012.4 1.6
20/06:00am 7.6 5.3 7.3 98 0.1 W 9 11 5 6 1012.7 1012.1 1.6
20/05:30am 7.8 5.5 7.4 97 0.2 W 9 13 5 7 1012.4 1011.8 1.6
20/05:00am 7.1 5.0 6.5 96 0.3 W 7 7 4 4 1012.2 1011.6 1.6
20/04:30am 7.7 4.9 7.1 96 0.3 W 11 13 6 7 1012.0 1011.4 1.6
20/04:00am 7.5 5.1 6.9 96 0.3 WSW 9 9 5 5 1011.8 1011.2 1.6
20/03:30am 8.3 6.0 7.5 95 0.4 W 9 9 5 5 1011.6 1011.0 1.4
20/03:00am 8.2 5.5 7.4 95 0.4 WSW 11 13 6 7 1011.6 1011.0 1.4
20/02:30am 8.4 6.2 7.8 96 0.3 WSW 9 11 5 6 1011.6 1011.0 1.4
20/02:00am 8.6 6.4 8.0 96 0.3 WSW 9 11 5 6 1011.7 1011.1 1.4
20/01:30am 9.3 6.9 8.5 95 0.4 WSW 11 13 6 7 1011.7 1011.1 1.4
20/01:00am 10.1 7.9 9.2 94 0.4 W 11 15 6 8 1011.8 1011.2 1.4
20/12:30am 10.5 8.5 10.0 97 0.3 WSW 11 15 6 8 1011.7 1011.1 1.4
20/12:00am 10.3 9.0 10.1 99 0.1 WSW 7 7 4 4 1011.6 1011.0 1.4
 
Date/Time
EDT
Temp
°C
App
Temp
°C
Dew
Point
°C
Rel
Hum
%
Delta-T
°C
Wind Press
QNH
hPa
Press
MSL
hPa
Rain since
9am
mm
Dir  Spd
km/h
Gust
km/h
Spd
kts
Gust
kts
19/11:30pm 10.6 9.3 10.1 97 0.3 WSW 7 9 4 5 1011.7 1011.1 1.4
19/11:00pm 11.8 10.9 10.5 92 0.7 W 6 7 3 4 1011.5 1010.9 1.4
19/10:30pm 12.1 10.9 10.3 89 0.9 W 7 9 4 5 1011.4 1010.8 1.4
19/10:00pm 12.2 11.4 10.9 92 0.7 WNW 6 9 3 5 1011.4 1010.8 1.4
19/09:30pm 12.1 11.2 10.8 92 0.7 W 6 9 3 5 1011.4 1010.8 1.4
19/09:00pm 12.2 9.6 10.6 90 0.8 SW 15 20 8 11 1011.1 1010.5 1.0
19/08:30pm 12.4 9.6 11.3 93 0.6 SSW 17 22 9 12 1010.8 1010.2 1.0
19/08:00pm 13.1 8.4 10.8 86 1.2 SW 26 32 14 17 1010.6 1010.0 0.2
19/07:30pm 14.1 10.0 11.4 84 1.4 SW 24 32 13 17 1009.4 1008.8 0.2
19/07:00pm 15.1 10.8 11.9 81 1.7 WSW 26 33 14 18 1008.9 1008.3 0.0
19/06:30pm 15.8 9.4 10.6 71 2.8 WSW 35 46 19 25 1008.8 1008.2 0.0
19/06:26pm 16.1 11.4 10.6 70 2.9 W 26 46 14 25 1008.7 1008.1 0.0
19/06:00pm 17.2 12.2 9.4 60 4.1 WNW 26 43 14 23 1008.4 1007.8 0.0
19/05:30pm 20.3 15.0 5.1 37 7.5 NNW 22 37 12 20 1007.8 1007.2 0.0
19/05:00pm 20.3 15.0 6.6 41 7.0 NW 24 35 13 19 1008.2 1007.6 0.0
19/04:30pm 20.3 15.6 5.1 37 7.5 NW 19 30 10 16 1008.3 1007.7 0.0
19/04:00pm 20.5 15.8 5.3 37 7.5 NW 19 30 10 16 1008.7 1008.1 0.0
19/03:30pm 21.2 16.4 5.6 36 7.8 WNW 20 35 11 19 1009.0 1008.4 0.0
19/03:00pm 20.8 16.3 4.4 34 8.0 WNW 17 30 9 16 1009.3 1008.7 0.0
19/02:30pm 19.8 15.2 3.9 35 7.6 WNW 17 26 9 14 1009.8 1009.2 0.0
19/02:00pm 19.1 15.0 4.1 37 7.2 WNW 15 30 8 16 1010.2 1009.6 0.0
19/01:30pm 18.5 13.9 3.9 38 6.9 NNW 17 24 9 13 1010.5 1009.9 0.0
19/01:00pm 18.4 15.5 4.9 41 6.5 WSW 9 20 5 11 1011.0 1010.4 0.0
19/12:30pm 17.6 14.2 4.2 41 6.4 NW 11 20 6 11 1011.4 1010.8 0.0
19/12:00pm 17.9 14.6 4.5 41 6.4 WSW 11 19 6 10 1011.9 1011.3 0.0
19/11:30am 17.8 14.6 5.1 43 6.1 W 11 22 6 12 1012.2 1011.6 0.0
19/11:00am 17.7 13.4 5.3 44 6.0 W 17 22 9 12 1012.5 1011.9 0.0
19/10:30am 17.0 12.3 5.3 46 5.7 WSW 19 24 10 13 1012.5 1011.9 0.0
19/10:00am 16.4 11.9 6.0 50 5.1 SW 19 28 10 15 1012.6 1012.0 0.0
19/09:30am 15.4 11.7 6.2 54 4.5 SW 15 26 8 14 1012.5 1011.9 0.0
19/09:00am 14.5 11.1 6.1 57 4.1 SW 13 17 7 9 1012.3 1011.7 0.0
19/08:30am 13.5 10.3 6.8 64 3.3 WSW 13 17 7 9 1012.1 1011.5 0.0

Other Formats:

Comma delimited format used in spreadsheet applications
http://www.bom.gov.au/fwo/IDV60801/IDV60801.94862.axf

JavaScript Object Notation format (JSON) in row-major order
http://www.bom.gov.au/fwo/IDV60801/IDV60801.94862.json